sensor_id;sensor_type;location;lat;lon;timestamp;P1;durP1;ratioP1;P2;durP2;ratioP2
17347;SDS011;8791;50.876;4.342;2022-10-31T00:02:04;16.02;;;7.75;;
17347;SDS011;8791;50.876;4.342;2022-10-31T00:04:31;12.27;;;8.10;;
17347;SDS011;8791;50.876;4.342;2022-10-31T00:06:59;16.73;;;8.40;;
17347;SDS011;8791;50.876;4.342;2022-10-31T00:09:26;15.90;;;8.33;;
17347;SDS011;8791;50.876;4.342;2022-10-31T00:11:53;19.73;;;8.68;;
17347;SDS011;8791;50.876;4.342;2022-10-31T00:14:20;19.73;;;9.07;;
17347;SDS011;8791;50.876;4.342;2022-10-31T00:16:46;13.88;;;7.70;;
17347;SDS011;8791;50.876;4.342;2022-10-31T00:19:13;14.48;;;8.02;;
17347;SDS011;8791;50.876;4.342;2022-10-31T00:21:40;13.43;;;7.57;;
17347;SDS011;8791;50.876;4.342;2022-10-31T00:24:08;17.70;;;7.53;;
17347;SDS011;8791;50.876;4.342;2022-10-31T00:26:36;21.10;;;8.30;;
17347;SDS011;8791;50.876;4.342;2022-10-31T00:29:03;13.32;;;7.50;;
17347;SDS011;8791;50.876;4.342;2022-10-31T00:31:30;10.68;;;7.20;;
17347;SDS011;8791;50.876;4.342;2022-10-31T00:33:57;11.15;;;7.60;;
17347;SDS011;8791;50.876;4.342;2022-10-31T00:36:24;17.73;;;8.57;;
17347;SDS011;8791;50.876;4.342;2022-10-31T00:38:51;12.50;;;6.97;;
17347;SDS011;8791;50.876;4.342;2022-10-31T00:41:19;12.20;;;7.83;;
17347;SDS011;8791;50.876;4.342;2022-10-31T00:43:46;15.73;;;7.93;;
17347;SDS011;8791;50.876;4.342;2022-10-31T00:46:13;16.33;;;7.50;;
17347;SDS011;8791;50.876;4.342;2022-10-31T00:48:40;15.47;;;7.60;;
17347;SDS011;8791;50.876;4.342;2022-10-31T00:51:08;17.00;;;8.63;;
17347;SDS011;8791;50.876;4.342;2022-10-31T00:53:35;15.93;;;7.90;;
17347;SDS011;8791;50.876;4.342;2022-10-31T00:56:02;18.20;;;8.67;;
17347;SDS011;8791;50.876;4.342;2022-10-31T00:58:31;16.60;;;9.03;;
17347;SDS011;8791;50.876;4.342;2022-10-31T01:00:58;15.23;;;8.00;;
17347;SDS011;8791;50.876;4.342;2022-10-31T01:03:25;14.93;;;8.00;;
17347;SDS011;8791;50.876;4.342;2022-10-31T01:05:57;14.40;;;8.23;;
17347;SDS011;8791;50.876;4.342;2022-10-31T01:08:25;16.93;;;9.23;;
17347;SDS011;8791;50.876;4.342;2022-10-31T01:11:03;14.97;;;8.20;;
17347;SDS011;8791;50.876;4.342;2022-10-31T01:13:33;24.90;;;8.10;;
17347;SDS011;8791;50.876;4.342;2022-10-31T01:16:01;14.17;;;7.97;;
17347;SDS011;8791;50.876;4.342;2022-10-31T01:18:29;18.40;;;8.53;;
17347;SDS011;8791;50.876;4.342;2022-10-31T01:20:56;13.80;;;7.90;;
17347;SDS011;8791;50.876;4.342;2022-10-31T01:23:25;19.00;;;8.13;;
17347;SDS011;8791;50.876;4.342;2022-10-31T01:25:58;14.20;;;7.70;;
17347;SDS011;8791;50.876;4.342;2022-10-31T01:28:26;10.37;;;7.00;;
17347;SDS011;8791;50.876;4.342;2022-10-31T01:30:54;12.20;;;7.00;;
17347;SDS011;8791;50.876;4.342;2022-10-31T01:33:21;21.60;;;7.37;;
17347;SDS011;8791;50.876;4.342;2022-10-31T01:35:48;13.20;;;7.30;;
17347;SDS011;8791;50.876;4.342;2022-10-31T01:38:15;17.73;;;7.40;;
17347;SDS011;8791;50.876;4.342;2022-10-31T01:40:42;17.80;;;7.53;;
17347;SDS011;8791;50.876;4.342;2022-10-31T01:43:10;22.50;;;6.93;;
17347;SDS011;8791;50.876;4.342;2022-10-31T01:45:39;16.87;;;7.30;;
17347;SDS011;8791;50.876;4.342;2022-10-31T01:48:08;13.83;;;6.80;;
17347;SDS011;8791;50.876;4.342;2022-10-31T01:50:39;12.37;;;6.70;;
17347;SDS011;8791;50.876;4.342;2022-10-31T01:53:08;16.90;;;6.63;;
17347;SDS011;8791;50.876;4.342;2022-10-31T01:55:38;7.47;;;6.53;;
17347;SDS011;8791;50.876;4.342;2022-10-31T01:58:08;11.10;;;7.30;;
17347;SDS011;8791;50.876;4.342;2022-10-31T02:00:38;10.80;;;6.77;;
17347;SDS011;8791;50.876;4.342;2022-10-31T02:03:09;14.03;;;7.20;;
17347;SDS011;8791;50.876;4.342;2022-10-31T02:05:36;14.03;;;6.73;;
17347;SDS011;8791;50.876;4.342;2022-10-31T02:08:04;17.10;;;7.07;;
17347;SDS011;8791;50.876;4.342;2022-10-31T02:10:35;12.60;;;6.40;;
17347;SDS011;8791;50.876;4.342;2022-10-31T02:13:03;11.63;;;7.50;;
17347;SDS011;8791;50.876;4.342;2022-10-31T02:15:32;10.63;;;7.03;;
17347;SDS011;8791;50.876;4.342;2022-10-31T02:17:59;14.07;;;7.10;;
17347;SDS011;8791;50.876;4.342;2022-10-31T02:20:29;12.07;;;7.20;;
17347;SDS011;8791;50.876;4.342;2022-10-31T02:23:08;14.23;;;7.00;;
17347;SDS011;8791;50.876;4.342;2022-10-31T02:26:04;13.77;;;7.43;;
17347;SDS011;8791;50.876;4.342;2022-10-31T02:28:56;13.77;;;7.27;;
17347;SDS011;8791;50.876;4.342;2022-10-31T02:31:47;13.40;;;7.47;;
17347;SDS011;8791;50.876;4.342;2022-10-31T02:34:22;17.07;;;8.03;;
17347;SDS011;8791;50.876;4.342;2022-10-31T02:36:55;14.30;;;7.33;;
17347;SDS011;8791;50.876;4.342;2022-10-31T02:39:25;16.10;;;7.70;;
17347;SDS011;8791;50.876;4.342;2022-10-31T02:42:01;15.70;;;7.60;;
17347;SDS011;8791;50.876;4.342;2022-10-31T02:44:35;14.70;;;8.07;;
17347;SDS011;8791;50.876;4.342;2022-10-31T02:47:06;20.73;;;8.00;;
17347;SDS011;8791;50.876;4.342;2022-10-31T02:49:38;17.00;;;7.13;;
17347;SDS011;8791;50.876;4.342;2022-10-31T02:52:16;13.73;;;7.53;;
17347;SDS011;8791;50.876;4.342;2022-10-31T02:54:45;12.50;;;7.47;;
17347;SDS011;8791;50.876;4.342;2022-10-31T02:57:13;19.90;;;8.40;;
17347;SDS011;8791;50.876;4.342;2022-10-31T02:59:44;15.90;;;8.40;;
17347;SDS011;8791;50.876;4.342;2022-10-31T03:02:37;15.07;;;8.20;;
17347;SDS011;8791;50.876;4.342;2022-10-31T03:08:02;15.23;;;8.07;;
17347;SDS011;8791;50.876;4.342;2022-10-31T03:10:39;15.07;;;8.13;;
17347;SDS011;8791;50.876;4.342;2022-10-31T03:13:10;20.00;;;7.87;;
17347;SDS011;8791;50.876;4.342;2022-10-31T03:15:48;13.40;;;8.30;;
17347;SDS011;8791;50.876;4.342;2022-10-31T03:18:20;17.60;;;8.80;;
17347;SDS011;8791;50.876;4.342;2022-10-31T03:20:54;13.90;;;8.63;;
17347;SDS011;8791;50.876;4.342;2022-10-31T03:23:26;14.73;;;8.80;;
17347;SDS011;8791;50.876;4.342;2022-10-31T03:25:56;16.53;;;8.40;;
17347;SDS011;8791;50.876;4.342;2022-10-31T03:28:27;21.37;;;9.17;;
17347;SDS011;8791;50.876;4.342;2022-10-31T03:30:56;14.13;;;8.57;;
17347;SDS011;8791;50.876;4.342;2022-10-31T03:33:27;18.33;;;9.40;;
17347;SDS011;8791;50.876;4.342;2022-10-31T03:35:57;17.13;;;8.00;;
17347;SDS011;8791;50.876;4.342;2022-10-31T03:38:28;20.37;;;8.83;;
17347;SDS011;8791;50.876;4.342;2022-10-31T03:40:58;14.13;;;8.13;;
17347;SDS011;8791;50.876;4.342;2022-10-31T03:43:28;16.27;;;8.53;;
17347;SDS011;8791;50.876;4.342;2022-10-31T03:45:59;16.80;;;8.17;;
17347;SDS011;8791;50.876;4.342;2022-10-31T03:48:27;17.47;;;7.83;;
17347;SDS011;8791;50.876;4.342;2022-10-31T03:50:57;17.57;;;8.53;;
17347;SDS011;8791;50.876;4.342;2022-10-31T03:53:30;14.50;;;8.83;;
17347;SDS011;8791;50.876;4.342;2022-10-31T03:56:01;19.63;;;9.00;;
17347;SDS011;8791;50.876;4.342;2022-10-31T03:58:34;14.00;;;8.47;;
17347;SDS011;8791;50.876;4.342;2022-10-31T04:01:04;13.93;;;7.63;;
17347;SDS011;8791;50.876;4.342;2022-10-31T04:03:36;17.70;;;8.73;;
17347;SDS011;8791;50.876;4.342;2022-10-31T04:06:05;17.67;;;8.03;;
17347;SDS011;8791;50.876;4.342;2022-10-31T04:08:36;16.13;;;8.70;;
17347;SDS011;8791;50.876;4.342;2022-10-31T04:11:08;14.80;;;9.03;;
17347;SDS011;8791;50.876;4.342;2022-10-31T04:13:38;14.87;;;8.30;;
17347;SDS011;8791;50.876;4.342;2022-10-31T04:16:07;13.13;;;8.73;;
17347;SDS011;8791;50.876;4.342;2022-10-31T04:18:37;14.17;;;8.10;;
17347;SDS011;8791;50.876;4.342;2022-10-31T04:21:04;20.13;;;8.80;;
17347;SDS011;8791;50.876;4.342;2022-10-31T04:23:33;16.73;;;8.23;;
17347;SDS011;8791;50.876;4.342;2022-10-31T04:26:00;14.70;;;9.17;;
17347;SDS011;8791;50.876;4.342;2022-10-31T04:28:27;14.63;;;8.10;;
17347;SDS011;8791;50.876;4.342;2022-10-31T04:30:54;18.80;;;9.20;;
17347;SDS011;8791;50.876;4.342;2022-10-31T04:33:21;16.23;;;8.80;;
17347;SDS011;8791;50.876;4.342;2022-10-31T04:35:49;14.80;;;8.83;;
17347;SDS011;8791;50.876;4.342;2022-10-31T04:38:16;17.30;;;9.63;;
17347;SDS011;8791;50.876;4.342;2022-10-31T04:40:42;15.97;;;8.30;;
17347;SDS011;8791;50.876;4.342;2022-10-31T04:43:10;17.33;;;9.07;;
17347;SDS011;8791;50.876;4.342;2022-10-31T04:45:37;17.40;;;9.33;;
17347;SDS011;8791;50.876;4.342;2022-10-31T04:48:04;35.53;;;19.40;;
17347;SDS011;8791;50.876;4.342;2022-10-31T04:50:31;20.70;;;9.80;;
17347;SDS011;8791;50.876;4.342;2022-10-31T04:52:59;24.53;;;9.67;;
17347;SDS011;8791;50.876;4.342;2022-10-31T04:55:26;21.73;;;9.97;;
17347;SDS011;8791;50.876;4.342;2022-10-31T04:57:52;20.10;;;9.27;;
17347;SDS011;8791;50.876;4.342;2022-10-31T05:00:20;17.37;;;10.00;;
17347;SDS011;8791;50.876;4.342;2022-10-31T05:02:48;15.00;;;9.20;;
17347;SDS011;8791;50.876;4.342;2022-10-31T05:05:17;23.77;;;8.50;;
17347;SDS011;8791;50.876;4.342;2022-10-31T05:07:45;25.87;;;9.70;;
17347;SDS011;8791;50.876;4.342;2022-10-31T05:10:15;15.03;;;8.87;;
17347;SDS011;8791;50.876;4.342;2022-10-31T05:12:46;14.93;;;8.80;;
17347;SDS011;8791;50.876;4.342;2022-10-31T05:15:14;30.40;;;9.40;;
17347;SDS011;8791;50.876;4.342;2022-10-31T05:17:41;16.23;;;9.40;;
17347;SDS011;8791;50.876;4.342;2022-10-31T05:20:08;17.70;;;9.07;;
17347;SDS011;8791;50.876;4.342;2022-10-31T05:22:35;15.77;;;9.27;;
17347;SDS011;8791;50.876;4.342;2022-10-31T05:25:02;18.53;;;8.83;;
17347;SDS011;8791;50.876;4.342;2022-10-31T05:27:31;23.13;;;8.20;;
17347;SDS011;8791;50.876;4.342;2022-10-31T05:29:58;12.90;;;8.23;;
17347;SDS011;8791;50.876;4.342;2022-10-31T05:32:24;19.53;;;9.03;;
17347;SDS011;8791;50.876;4.342;2022-10-31T05:34:51;20.83;;;9.07;;
17347;SDS011;8791;50.876;4.342;2022-10-31T05:37:18;15.87;;;8.73;;
17347;SDS011;8791;50.876;4.342;2022-10-31T05:39:45;24.30;;;10.10;;
17347;SDS011;8791;50.876;4.342;2022-10-31T05:42:12;18.13;;;9.10;;
17347;SDS011;8791;50.876;4.342;2022-10-31T05:44:40;17.93;;;9.17;;
17347;SDS011;8791;50.876;4.342;2022-10-31T05:47:06;18.83;;;8.43;;
17347;SDS011;8791;50.876;4.342;2022-10-31T05:49:33;17.43;;;9.27;;
17347;SDS011;8791;50.876;4.342;2022-10-31T05:52:00;16.77;;;8.63;;
17347;SDS011;8791;50.876;4.342;2022-10-31T05:54:27;18.27;;;8.70;;
17347;SDS011;8791;50.876;4.342;2022-10-31T05:56:54;25.23;;;9.03;;
17347;SDS011;8791;50.876;4.342;2022-10-31T05:59:20;18.07;;;9.10;;
17347;SDS011;8791;50.876;4.342;2022-10-31T06:01:49;17.87;;;9.30;;
17347;SDS011;8791;50.876;4.342;2022-10-31T06:04:15;29.33;;;9.77;;
17347;SDS011;8791;50.876;4.342;2022-10-31T06:06:42;22.10;;;10.47;;
17347;SDS011;8791;50.876;4.342;2022-10-31T06:09:09;26.30;;;11.13;;
17347;SDS011;8791;50.876;4.342;2022-10-31T06:11:36;18.97;;;9.80;;
17347;SDS011;8791;50.876;4.342;2022-10-31T06:14:02;19.40;;;10.43;;
17347;SDS011;8791;50.876;4.342;2022-10-31T06:16:29;16.30;;;10.33;;
17347;SDS011;8791;50.876;4.342;2022-10-31T06:18:58;22.57;;;10.80;;
17347;SDS011;8791;50.876;4.342;2022-10-31T06:21:24;23.17;;;10.43;;
17347;SDS011;8791;50.876;4.342;2022-10-31T06:23:51;20.93;;;11.03;;
17347;SDS011;8791;50.876;4.342;2022-10-31T06:26:18;25.97;;;11.83;;
17347;SDS011;8791;50.876;4.342;2022-10-31T06:28:45;24.13;;;11.83;;
17347;SDS011;8791;50.876;4.342;2022-10-31T06:31:12;21.00;;;10.87;;
17347;SDS011;8791;50.876;4.342;2022-10-31T06:33:40;24.73;;;11.10;;
17347;SDS011;8791;50.876;4.342;2022-10-31T06:36:09;19.40;;;10.00;;
17347;SDS011;8791;50.876;4.342;2022-10-31T06:38:36;23.00;;;10.83;;
17347;SDS011;8791;50.876;4.342;2022-10-31T06:41:03;23.67;;;10.67;;
17347;SDS011;8791;50.876;4.342;2022-10-31T06:43:31;24.90;;;10.57;;
17347;SDS011;8791;50.876;4.342;2022-10-31T06:46:01;18.73;;;10.27;;
17347;SDS011;8791;50.876;4.342;2022-10-31T06:48:29;27.73;;;10.97;;
17347;SDS011;8791;50.876;4.342;2022-10-31T06:50:57;21.83;;;10.30;;
17347;SDS011;8791;50.876;4.342;2022-10-31T06:53:28;23.90;;;10.13;;
17347;SDS011;8791;50.876;4.342;2022-10-31T06:55:55;21.00;;;9.73;;
17347;SDS011;8791;50.876;4.342;2022-10-31T06:58:22;22.00;;;10.20;;
17347;SDS011;8791;50.876;4.342;2022-10-31T07:00:49;24.73;;;10.93;;
17347;SDS011;8791;50.876;4.342;2022-10-31T07:03:16;19.43;;;10.17;;
17347;SDS011;8791;50.876;4.342;2022-10-31T07:05:45;22.40;;;10.23;;
17347;SDS011;8791;50.876;4.342;2022-10-31T07:08:12;22.40;;;10.13;;
17347;SDS011;8791;50.876;4.342;2022-10-31T07:10:41;28.80;;;10.33;;
17347;SDS011;8791;50.876;4.342;2022-10-31T07:13:10;25.00;;;11.03;;
17347;SDS011;8791;50.876;4.342;2022-10-31T07:15:39;25.97;;;11.37;;
17347;SDS011;8791;50.876;4.342;2022-10-31T07:18:07;21.57;;;10.97;;
17347;SDS011;8791;50.876;4.342;2022-10-31T07:20:35;17.77;;;10.87;;
17347;SDS011;8791;50.876;4.342;2022-10-31T07:23:02;18.07;;;10.67;;
17347;SDS011;8791;50.876;4.342;2022-10-31T07:25:29;32.40;;;11.57;;
17347;SDS011;8791;50.876;4.342;2022-10-31T07:27:57;19.07;;;11.87;;
17347;SDS011;8791;50.876;4.342;2022-10-31T07:30:24;25.63;;;12.17;;
17347;SDS011;8791;50.876;4.342;2022-10-31T07:32:51;25.80;;;10.83;;
17347;SDS011;8791;50.876;4.342;2022-10-31T07:35:19;23.00;;;11.37;;
17347;SDS011;8791;50.876;4.342;2022-10-31T07:37:47;15.93;;;10.23;;
17347;SDS011;8791;50.876;4.342;2022-10-31T07:40:15;21.77;;;10.80;;
17347;SDS011;8791;50.876;4.342;2022-10-31T07:42:43;22.57;;;11.30;;
17347;SDS011;8791;50.876;4.342;2022-10-31T07:45:13;21.30;;;12.20;;
17347;SDS011;8791;50.876;4.342;2022-10-31T07:47:42;21.93;;;12.70;;
17347;SDS011;8791;50.876;4.342;2022-10-31T07:50:11;22.43;;;11.40;;
17347;SDS011;8791;50.876;4.342;2022-10-31T07:52:38;19.53;;;13.13;;
17347;SDS011;8791;50.876;4.342;2022-10-31T07:55:06;22.77;;;11.97;;
17347;SDS011;8791;50.876;4.342;2022-10-31T07:57:33;22.10;;;11.80;;
17347;SDS011;8791;50.876;4.342;2022-10-31T08:00:02;20.90;;;11.00;;
17347;SDS011;8791;50.876;4.342;2022-10-31T08:02:30;21.80;;;10.50;;
17347;SDS011;8791;50.876;4.342;2022-10-31T08:04:57;18.27;;;10.40;;
17347;SDS011;8791;50.876;4.342;2022-10-31T08:07:24;24.20;;;10.10;;
17347;SDS011;8791;50.876;4.342;2022-10-31T08:09:51;20.97;;;9.03;;
17347;SDS011;8791;50.876;4.342;2022-10-31T08:12:18;17.90;;;9.60;;
17347;SDS011;8791;50.876;4.342;2022-10-31T08:14:45;20.93;;;9.23;;
17347;SDS011;8791;50.876;4.342;2022-10-31T08:17:12;11.97;;;8.17;;
17347;SDS011;8791;50.876;4.342;2022-10-31T08:19:41;18.37;;;8.47;;
17347;SDS011;8791;50.876;4.342;2022-10-31T08:22:08;14.43;;;8.60;;
17347;SDS011;8791;50.876;4.342;2022-10-31T08:24:38;15.13;;;10.00;;
17347;SDS011;8791;50.876;4.342;2022-10-31T08:27:05;15.50;;;9.53;;
17347;SDS011;8791;50.876;4.342;2022-10-31T08:29:36;14.17;;;9.07;;
17347;SDS011;8791;50.876;4.342;2022-10-31T08:32:08;18.43;;;9.83;;
17347;SDS011;8791;50.876;4.342;2022-10-31T08:34:37;20.73;;;10.57;;
17347;SDS011;8791;50.876;4.342;2022-10-31T08:37:10;18.07;;;11.03;;
17347;SDS011;8791;50.876;4.342;2022-10-31T08:39:46;26.47;;;10.03;;
17347;SDS011;8791;50.876;4.342;2022-10-31T08:42:17;17.80;;;10.77;;
17347;SDS011;8791;50.876;4.342;2022-10-31T08:44:47;22.17;;;10.20;;
17347;SDS011;8791;50.876;4.342;2022-10-31T08:47:15;23.17;;;10.07;;
17347;SDS011;8791;50.876;4.342;2022-10-31T08:49:43;20.90;;;10.20;;
17347;SDS011;8791;50.876;4.342;2022-10-31T08:52:14;47.93;;;16.47;;
17347;SDS011;8791;50.876;4.342;2022-10-31T08:54:41;23.57;;;12.17;;
17347;SDS011;8791;50.876;4.342;2022-10-31T08:57:08;22.00;;;12.70;;
17347;SDS011;8791;50.876;4.342;2022-10-31T08:59:34;28.67;;;12.23;;
17347;SDS011;8791;50.876;4.342;2022-10-31T09:02:01;22.30;;;11.83;;
17347;SDS011;8791;50.876;4.342;2022-10-31T09:04:28;20.43;;;11.90;;
17347;SDS011;8791;50.876;4.342;2022-10-31T09:06:55;28.00;;;11.67;;
17347;SDS011;8791;50.876;4.342;2022-10-31T09:09:23;27.50;;;13.03;;
17347;SDS011;8791;50.876;4.342;2022-10-31T09:11:50;18.07;;;11.50;;
17347;SDS011;8791;50.876;4.342;2022-10-31T09:14:17;20.17;;;12.13;;
17347;SDS011;8791;50.876;4.342;2022-10-31T09:16:44;24.63;;;12.40;;
17347;SDS011;8791;50.876;4.342;2022-10-31T09:19:11;17.27;;;11.73;;
17347;SDS011;8791;50.876;4.342;2022-10-31T09:21:40;21.00;;;12.00;;
17347;SDS011;8791;50.876;4.342;2022-10-31T09:24:08;17.43;;;11.57;;
17347;SDS011;8791;50.876;4.342;2022-10-31T09:26:36;20.20;;;11.00;;
17347;SDS011;8791;50.876;4.342;2022-10-31T09:29:03;16.87;;;10.53;;
17347;SDS011;8791;50.876;4.342;2022-10-31T09:31:30;21.17;;;10.57;;
17347;SDS011;8791;50.876;4.342;2022-10-31T09:33:56;18.10;;;10.60;;
17347;SDS011;8791;50.876;4.342;2022-10-31T09:36:23;17.87;;;9.40;;
17347;SDS011;8791;50.876;4.342;2022-10-31T09:38:51;23.80;;;9.47;;
17347;SDS011;8791;50.876;4.342;2022-10-31T09:41:19;20.03;;;9.37;;
17347;SDS011;8791;50.876;4.342;2022-10-31T09:43:57;17.67;;;8.47;;
17347;SDS011;8791;50.876;4.342;2022-10-31T09:46:31;16.00;;;8.77;;
17347;SDS011;8791;50.876;4.342;2022-10-31T09:49:12;24.20;;;8.93;;
17347;SDS011;8791;50.876;4.342;2022-10-31T09:51:55;22.93;;;8.70;;
17347;SDS011;8791;50.876;4.342;2022-10-31T09:54:28;12.23;;;7.72;;
17347;SDS011;8791;50.876;4.342;2022-10-31T09:57:00;18.73;;;7.72;;
17347;SDS011;8791;50.876;4.342;2022-10-31T09:59:30;24.77;;;7.95;;
17347;SDS011;8791;50.876;4.342;2022-10-31T10:02:00;16.27;;;7.90;;
17347;SDS011;8791;50.876;4.342;2022-10-31T10:04:32;13.40;;;7.55;;
17347;SDS011;8791;50.876;4.342;2022-10-31T10:07:06;16.65;;;7.70;;
17347;SDS011;8791;50.876;4.342;2022-10-31T10:09:39;14.65;;;7.72;;
17347;SDS011;8791;50.876;4.342;2022-10-31T10:12:09;12.75;;;7.88;;
17347;SDS011;8791;50.876;4.342;2022-10-31T10:14:50;23.23;;;8.20;;
17347;SDS011;8791;50.876;4.342;2022-10-31T10:17:27;10.50;;;8.07;;
17347;SDS011;8791;50.876;4.342;2022-10-31T10:22:54;15.27;;;7.55;;
17347;SDS011;8791;50.876;4.342;2022-10-31T10:25:33;14.77;;;8.57;;
17347;SDS011;8791;50.876;4.342;2022-10-31T10:28:08;19.40;;;8.43;;
17347;SDS011;8791;50.876;4.342;2022-10-31T10:30:46;10.73;;;8.38;;
17347;SDS011;8791;50.876;4.342;2022-10-31T10:33:16;12.10;;;8.23;;
17347;SDS011;8791;50.876;4.342;2022-10-31T10:35:47;13.95;;;8.57;;
17347;SDS011;8791;50.876;4.342;2022-10-31T10:38:18;21.30;;;9.18;;
17347;SDS011;8791;50.876;4.342;2022-10-31T10:40:49;16.17;;;8.77;;
17347;SDS011;8791;50.876;4.342;2022-10-31T10:43:20;15.52;;;8.80;;
17347;SDS011;8791;50.876;4.342;2022-10-31T10:45:52;15.75;;;8.55;;
17347;SDS011;8791;50.876;4.342;2022-10-31T10:48:51;15.50;;;9.85;;
17347;SDS011;8791;50.876;4.342;2022-10-31T10:51:27;14.40;;;8.57;;
17347;SDS011;8791;50.876;4.342;2022-10-31T10:54:08;23.63;;;10.13;;
17347;SDS011;8791;50.876;4.342;2022-10-31T10:56:47;17.95;;;9.65;;
17347;SDS011;8791;50.876;4.342;2022-10-31T10:59:21;13.77;;;10.05;;
17347;SDS011;8791;50.876;4.342;2022-10-31T11:01:50;18.45;;;10.40;;
17347;SDS011;8791;50.876;4.342;2022-10-31T11:04:23;15.30;;;10.18;;
17347;SDS011;8791;50.876;4.342;2022-10-31T11:07:01;16.20;;;10.68;;
17347;SDS011;8791;50.876;4.342;2022-10-31T11:09:30;17.17;;;9.83;;
17347;SDS011;8791;50.876;4.342;2022-10-31T11:11:57;16.92;;;10.52;;
17347;SDS011;8791;50.876;4.342;2022-10-31T11:14:24;16.77;;;10.55;;
17347;SDS011;8791;50.876;4.342;2022-10-31T11:17:06;24.38;;;10.70;;
17347;SDS011;8791;50.876;4.342;2022-10-31T11:19:35;14.18;;;10.38;;
17347;SDS011;8791;50.876;4.342;2022-10-31T11:22:06;20.80;;;9.98;;
17347;SDS011;8791;50.876;4.342;2022-10-31T11:24:37;18.90;;;10.75;;
17347;SDS011;8791;50.876;4.342;2022-10-31T11:27:11;22.10;;;9.38;;
17347;SDS011;8791;50.876;4.342;2022-10-31T11:29:40;20.83;;;10.20;;
17347;SDS011;8791;50.876;4.342;2022-10-31T11:32:14;21.73;;;10.30;;
17347;SDS011;8791;50.876;4.342;2022-10-31T11:34:45;23.23;;;9.83;;
17347;SDS011;8791;50.876;4.342;2022-10-31T11:37:15;18.10;;;9.50;;
17347;SDS011;8791;50.876;4.342;2022-10-31T11:39:44;14.70;;;9.48;;
17347;SDS011;8791;50.876;4.342;2022-10-31T11:42:18;19.20;;;10.20;;
17347;SDS011;8791;50.876;4.342;2022-10-31T11:44:47;22.37;;;10.00;;
17347;SDS011;8791;50.876;4.342;2022-10-31T11:47:17;23.10;;;9.60;;
17347;SDS011;8791;50.876;4.342;2022-10-31T11:49:48;15.73;;;9.87;;
17347;SDS011;8791;50.876;4.342;2022-10-31T11:52:16;24.50;;;10.03;;
17347;SDS011;8791;50.876;4.342;2022-10-31T11:54:47;20.08;;;9.60;;
17347;SDS011;8791;50.876;4.342;2022-10-31T11:57:23;13.97;;;9.57;;
17347;SDS011;8791;50.876;4.342;2022-10-31T11:59:55;16.13;;;9.43;;
17347;SDS011;8791;50.876;4.342;2022-10-31T12:02:24;17.60;;;8.90;;
17347;SDS011;8791;50.876;4.342;2022-10-31T12:05:04;13.73;;;8.90;;
17347;SDS011;8791;50.876;4.342;2022-10-31T12:07:37;20.60;;;9.10;;
17347;SDS011;8791;50.876;4.342;2022-10-31T12:10:04;21.77;;;9.07;;
17347;SDS011;8791;50.876;4.342;2022-10-31T12:12:47;25.77;;;9.65;;
17347;SDS011;8791;50.876;4.342;2022-10-31T12:18:27;21.10;;;9.55;;
17347;SDS011;8791;50.876;4.342;2022-10-31T12:21:13;29.10;;;8.95;;
17347;SDS011;8791;50.876;4.342;2022-10-31T12:23:55;19.85;;;8.63;;
17347;SDS011;8791;50.876;4.342;2022-10-31T12:26:41;15.40;;;8.60;;
17347;SDS011;8791;50.876;4.342;2022-10-31T12:29:17;23.58;;;9.10;;
17347;SDS011;8791;50.876;4.342;2022-10-31T12:31:54;20.50;;;9.40;;
17347;SDS011;8791;50.876;4.342;2022-10-31T12:34:40;17.02;;;8.85;;
17347;SDS011;8791;50.876;4.342;2022-10-31T12:37:21;18.45;;;8.52;;
17347;SDS011;8791;50.876;4.342;2022-10-31T12:40:01;18.48;;;8.15;;
17347;SDS011;8791;50.876;4.342;2022-10-31T12:42:43;19.35;;;8.40;;
17347;SDS011;8791;50.876;4.342;2022-10-31T12:48:19;24.60;;;8.93;;
17347;SDS011;8791;50.876;4.342;2022-10-31T12:51:07;20.45;;;7.97;;
17347;SDS011;8791;50.876;4.342;2022-10-31T12:53:46;16.33;;;8.50;;
17347;SDS011;8791;50.876;4.342;2022-10-31T12:56:27;19.92;;;8.45;;
17347;SDS011;8791;50.876;4.342;2022-10-31T12:59:04;14.13;;;7.88;;
17347;SDS011;8791;50.876;4.342;2022-10-31T13:01:37;18.35;;;7.45;;
17347;SDS011;8791;50.876;4.342;2022-10-31T13:04:11;17.48;;;7.15;;
17347;SDS011;8791;50.876;4.342;2022-10-31T13:06:45;26.90;;;7.35;;
17347;SDS011;8791;50.876;4.342;2022-10-31T13:09:15;16.48;;;7.72;;
17347;SDS011;8791;50.876;4.342;2022-10-31T13:11:47;17.27;;;7.25;;
17347;SDS011;8791;50.876;4.342;2022-10-31T13:14:21;17.95;;;6.70;;
17347;SDS011;8791;50.876;4.342;2022-10-31T13:16:52;23.90;;;7.57;;
17347;SDS011;8791;50.876;4.342;2022-10-31T13:19:22;13.15;;;6.53;;
17347;SDS011;8791;50.876;4.342;2022-10-31T13:21:53;18.00;;;7.80;;
17347;SDS011;8791;50.876;4.342;2022-10-31T13:24:26;14.82;;;6.90;;
17347;SDS011;8791;50.876;4.342;2022-10-31T13:26:59;20.73;;;6.80;;
17347;SDS011;8791;50.876;4.342;2022-10-31T13:29:30;23.75;;;7.20;;
17347;SDS011;8791;50.876;4.342;2022-10-31T13:32:04;18.33;;;7.28;;
17347;SDS011;8791;50.876;4.342;2022-10-31T13:34:33;22.85;;;7.47;;
17347;SDS011;8791;50.876;4.342;2022-10-31T13:37:09;13.68;;;7.15;;
17347;SDS011;8791;50.876;4.342;2022-10-31T13:39:50;14.95;;;6.38;;
17347;SDS011;8791;50.876;4.342;2022-10-31T13:42:43;13.93;;;6.47;;
17347;SDS011;8791;50.876;4.342;2022-10-31T13:45:19;17.50;;;6.55;;
17347;SDS011;8791;50.876;4.342;2022-10-31T13:47:54;15.30;;;6.45;;
17347;SDS011;8791;50.876;4.342;2022-10-31T13:50:24;22.88;;;6.63;;
17347;SDS011;8791;50.876;4.342;2022-10-31T13:52:53;15.20;;;7.43;;
17347;SDS011;8791;50.876;4.342;2022-10-31T13:55:37;20.08;;;6.95;;
17347;SDS011;8791;50.876;4.342;2022-10-31T13:58:18;20.58;;;7.82;;
17347;SDS011;8791;50.876;4.342;2022-10-31T14:00:57;20.27;;;6.95;;
17347;SDS011;8791;50.876;4.342;2022-10-31T14:03:31;20.38;;;7.07;;
17347;SDS011;8791;50.876;4.342;2022-10-31T14:06:01;24.27;;;7.53;;
17347;SDS011;8791;50.876;4.342;2022-10-31T14:08:30;20.17;;;7.20;;
17347;SDS011;8791;50.876;4.342;2022-10-31T14:11:01;23.50;;;6.95;;
17347;SDS011;8791;50.876;4.342;2022-10-31T14:13:29;21.50;;;6.80;;
17347;SDS011;8791;50.876;4.342;2022-10-31T14:15:59;19.63;;;6.70;;
17347;SDS011;8791;50.876;4.342;2022-10-31T14:18:30;20.00;;;7.10;;
17347;SDS011;8791;50.876;4.342;2022-10-31T14:20:58;20.77;;;6.22;;
17347;SDS011;8791;50.876;4.342;2022-10-31T14:23:31;13.50;;;5.82;;
17347;SDS011;8791;50.876;4.342;2022-10-31T14:26:06;15.40;;;5.88;;
17347;SDS011;8791;50.876;4.342;2022-10-31T14:28:43;12.75;;;6.35;;
17347;SDS011;8791;50.876;4.342;2022-10-31T14:31:24;14.30;;;6.30;;
17347;SDS011;8791;50.876;4.342;2022-10-31T14:33:59;15.90;;;5.70;;
17347;SDS011;8791;50.876;4.342;2022-10-31T14:36:32;17.58;;;5.90;;
17347;SDS011;8791;50.876;4.342;2022-10-31T14:39:10;13.18;;;5.57;;
17347;SDS011;8791;50.876;4.342;2022-10-31T14:41:49;11.95;;;5.38;;
17347;SDS011;8791;50.876;4.342;2022-10-31T14:47:30;13.85;;;5.38;;
17347;SDS011;8791;50.876;4.342;2022-10-31T14:52:51;13.05;;;4.85;;
17347;SDS011;8791;50.876;4.342;2022-10-31T14:55:22;13.73;;;4.80;;
17347;SDS011;8791;50.876;4.342;2022-10-31T14:57:51;15.05;;;4.78;;
17347;SDS011;8791;50.876;4.342;2022-10-31T15:00:21;11.68;;;4.88;;
17347;SDS011;8791;50.876;4.342;2022-10-31T15:02:51;14.68;;;5.28;;
17347;SDS011;8791;50.876;4.342;2022-10-31T15:05:27;15.75;;;5.40;;
17347;SDS011;8791;50.876;4.342;2022-10-31T15:07:56;17.60;;;4.97;;
17347;SDS011;8791;50.876;4.342;2022-10-31T15:10:26;17.63;;;4.22;;
17347;SDS011;8791;50.876;4.342;2022-10-31T15:13:07;17.05;;;5.20;;
17347;SDS011;8791;50.876;4.342;2022-10-31T15:15:35;14.45;;;5.15;;
17347;SDS011;8791;50.876;4.342;2022-10-31T15:18:03;16.27;;;5.43;;
17347;SDS011;8791;50.876;4.342;2022-10-31T15:20:33;13.40;;;5.40;;
17347;SDS011;8791;50.876;4.342;2022-10-31T15:23:08;17.40;;;5.85;;
17347;SDS011;8791;50.876;4.342;2022-10-31T15:25:41;12.43;;;5.18;;